Time;durP1;ratioP1;P1;durP2;ratioP2;P2;SDS_P1;SDS_P2;PMS_P1;PMS_P2;Temp;Humidity;BMP_temperature;BMP_pressure;BME280_temperature;BME280_humidity;BME280_pressure;Samples;Min_cycle;Max_cycle;Signal;HPM_P1;HPM_P2
2023/05/27 07:23:04;;;;;;;15.52;6.30;;;;;;;-145.79;55.47;78572.94;5274094;28;20392;-67
2023/05/27 07:25:35;;;;;;;14.35;6.93;;;;;;;-145.79;55.23;78579.28;5255252;28;20037;-67
2023/05/27 07:28:07;;;;;;;13.52;6.80;;;;;;;-145.79;55.64;78555.97;5237565;28;20057;-66
2023/05/27 07:30:38;;;;;;;14.85;7.68;;;;;;;-145.79;55.27;78560.19;5238318;28;20021;-66
2023/05/27 07:33:10;;;;;;;11.68;6.30;;;;;;;-145.79;55.91;78526.28;5243466;28;20376;-66
2023/05/27 07:35:41;;;;;;;16.77;8.25;;;;;;;-145.79;55.26;78515.69;5247054;28;20040;-67
2023/05/27 07:38:12;;;;;;;14.55;7.45;;;;;;;-145.79;55.09;78526.28;5259016;28;20028;-66
2023/05/27 07:40:44;;;;;;;10.93;5.88;;;;;;;-145.79;55.50;78481.75;5253013;28;20025;-66
2023/05/27 07:43:15;;;;;;;12.05;6.07;;;;;;;-145.79;54.73;78469.03;5257379;28;20049;-66
2023/05/27 07:45:46;;;;;;;14.50;8.20;;;;;;;-145.79;53.97;78466.91;5258489;28;20486;-66
2023/05/27 07:48:18;;;;;;;14.90;7.13;;;;;;;-145.79;54.01;78449.94;5257578;28;20060;-66
2023/05/27 07:50:49;;;;;;;11.88;7.05;;;;;;;-145.79;53.38;78454.19;5258399;28;20502;-66
2023/05/27 07:53:21;;;;;;;16.27;7.18;;;;;;;-145.79;53.12;78420.28;5258821;28;20108;-69
2023/05/27 07:55:52;;;;;;;16.35;6.82;;;;;;;-145.79;53.06;78413.91;5257795;28;20025;-67
2023/05/27 07:58:23;;;;;;;13.32;6.53;;;;;;;-145.79;53.54;78386.34;5247380;28;20018;-66
2023/05/27 08:00:55;;;;;;;17.05;7.10;;;;;;;-145.79;52.51;78377.88;5238822;28;20452;-67
2023/05/27 08:03:26;;;;;;;15.95;7.65;;;;;;;-145.79;51.69;78382.09;5236106;28;20022;-66
2023/05/27 08:05:57;;;;;;;14.65;6.88;;;;;;;-145.79;52.67;78375.75;5237675;28;20100;-67
2023/05/27 08:08:28;;;;;;;14.13;5.70;;;;;;;-145.79;52.26;78352.44;5255088;28;20013;-67
2023/05/27 08:11:00;;;;;;;18.27;7.57;;;;;;;-145.79;51.60;78346.06;5239362;28;20472;-66
2023/05/27 08:13:31;;;;;;;16.67;7.13;;;;;;;-145.79;51.51;78365.16;5239346;28;20029;-67
2023/05/27 08:16:03;;;;;;;16.38;7.28;;;;;;;-145.79;51.48;78322.75;5247109;28;20568;-65
2023/05/27 08:18:36;;;;;;;9.70;6.25;;;;;;;-145.79;51.66;78310.03;5237515;28;20461;-66
2023/05/27 08:21:07;;;;;;;14.73;7.85;;;;;;;-145.79;51.03;78316.38;5237247;28;20034;-67
2023/05/27 08:23:38;;;;;;;16.02;6.68;;;;;;;-145.79;51.66;78293.06;5236393;28;20075;-66
2023/05/27 08:26:10;;;;;;;14.00;7.03;;;;;;;-145.79;51.93;78280.34;5237045;28;20025;-68
2023/05/27 08:28:41;;;;;;;11.65;6.07;;;;;;;-145.79;51.51;78267.63;5237490;28;20017;-67
2023/05/27 08:31:12;;;;;;;11.38;5.90;;;;;;;-145.79;51.33;78227.34;5244449;28;20036;-68
2023/05/27 08:33:43;;;;;;;15.43;10.07;;;;;;;-145.79;51.16;78229.47;5228667;28;20017;-67
2023/05/27 08:36:16;;;;;;;13.13;6.70;;;;;;;-145.79;50.75;78218.84;5228379;28;20017;-67
2023/05/27 08:38:48;;;;;;;16.83;7.57;;;;;;;-145.79;50.85;78214.63;5238494;28;20068;-67
2023/05/27 08:41:19;;;;;;;12.80;6.13;;;;;;;-145.79;50.69;78199.78;5232053;28;20069;-68
2023/05/27 08:43:51;;;;;;;11.15;6.15;;;;;;;-145.79;50.03;78197.66;5223751;28;20392;-67
2023/05/27 08:46:23;;;;;;;20.90;7.32;;;;;;;-145.79;49.51;78191.28;5222700;28;20029;-67
2023/05/27 08:48:57;;;;;;;13.23;6.85;;;;;;;-145.79;49.97;78193.41;5230067;28;20075;-67
2023/05/27 08:51:29;;;;;;;11.25;7.70;;;;;;;-145.79;50.13;78176.47;5224092;28;20030;-67
2023/05/27 08:54:01;;;;;;;16.80;7.32;;;;;;;-145.79;49.77;78170.09;5232622;28;20037;-67
2023/05/27 08:56:33;;;;;;;10.38;6.68;;;;;;;-145.79;49.67;78172.22;5234373;28;20026;-69
2023/05/27 08:59:04;;;;;;;18.90;7.65;;;;;;;-145.79;49.35;78161.63;5227976;28;20060;-68
2023/05/27 09:01:36;;;;;;;15.73;8.05;;;;;;;-145.79;49.40;78134.06;5222572;28;20022;-68
2023/05/27 09:04:08;;;;;;;21.50;9.27;;;;;;;-145.79;49.51;78106.50;5222772;28;20026;-69
2023/05/27 09:06:39;;;;;;;12.93;6.93;;;;;;;-145.79;48.85;78098.00;5226591;28;20041;-68
2023/05/27 09:09:11;;;;;;;14.88;7.85;;;;;;;-145.79;48.50;78110.72;5223677;28;20026;-68
2023/05/27 09:11:43;;;;;;;16.25;8.65;;;;;;;-145.79;48.13;78108.63;5242849;28;20025;-68
2023/05/27 09:14:23;;;;;;;16.52;8.43;;;;;;;-145.79;48.09;78066.22;5230754;28;20099;-68
2023/05/27 09:16:55;;;;;;;13.32;6.53;;;;;;;-145.79;47.77;78055.63;5242179;28;20021;-66
2023/05/27 09:19:26;;;;;;;15.23;7.75;;;;;;;-145.79;47.44;78045.00;5242817;28;20032;-66
2023/05/27 09:21:57;;;;;;;14.30;6.53;;;;;;;-145.79;47.08;78036.53;5241949;28;20068;-66
2023/05/27 09:24:28;;;;;;;11.68;6.20;;;;;;;-145.79;46.69;78032.28;5239094;28;20022;-72
2023/05/27 09:27:00;;;;;;;27.35;16.90;;;;;;;-145.79;46.44;78040.78;5233398;28;20033;-66
2023/05/27 09:29:34;;;;;;;26.73;14.32;;;;;;;-145.79;46.80;78019.56;5229786;28;20021;-68
2023/05/27 09:32:07;;;;;;;19.40;9.27;;;;;;;-145.79;46.61;78008.97;5241479;28;20032;-67
2023/05/27 09:34:39;;;;;;;11.70;7.22;;;;;;;-145.79;46.58;77994.13;5240862;28;20025;-66
2023/05/27 09:37:14;;;;;;;17.52;8.98;;;;;;;-145.79;47.15;77979.28;5224543;28;20045;-68
2023/05/27 09:39:46;;;;;;;15.73;7.85;;;;;;;-145.79;46.44;77979.28;5234696;28;20021;-68
2023/05/27 09:42:18;;;;;;;16.85;6.88;;;;;;;-145.79;46.91;77955.97;5231880;28;20040;-67
2023/05/27 09:44:49;;;;;;;14.13;7.10;;;;;;;-145.79;46.25;77951.72;5221351;28;20029;-67
2023/05/27 09:47:22;;;;;;;13.57;7.03;;;;;;;-145.79;45.34;77941.13;5227851;28;20124;-68
2023/05/27 09:49:54;;;;;;;14.38;6.43;;;;;;;-145.79;45.71;77928.41;5235493;28;20025;-68
2023/05/27 09:52:27;;;;;;;15.48;6.35;;;;;;;-145.79;45.20;77911.47;5240104;28;20036;-68
2023/05/27 09:54:58;;;;;;;13.50;7.30;;;;;;;-145.79;45.33;77902.97;5238199;28;20033;-66
2023/05/27 09:57:30;;;;;;;12.60;6.32;;;;;;;-145.79;44.93;77900.84;5238981;28;20099;-67
2023/05/27 10:00:17;;;;;;;15.48;9.77;;;;;;;-145.79;45.25;77892.38;5239251;28;20036;-67
2023/05/27 10:02:48;;;;;;;13.52;7.10;;;;;;;-145.79;45.00;77898.75;5238649;28;20413;-67
2023/05/27 10:05:21;;;;;;;13.65;8.52;;;;;;;-145.79;44.44;77892.38;5239790;28;20032;-67
2023/05/27 10:07:53;;;;;;;20.30;6.60;;;;;;;-145.79;43.63;77881.78;5229325;28;20038;-67
2023/05/27 10:10:24;;;;;;;11.68;6.88;;;;;;;-145.79;43.15;77877.53;5220652;28;20105;-66
2023/05/27 10:12:57;;;;;;;13.73;6.13;;;;;;;-145.79;44.29;77866.94;5241919;28;20024;-67
2023/05/27 10:15:29;;;;;;;15.90;7.10;;;;;;;-145.79;43.98;77875.41;5238574;28;20057;-66
2023/05/27 10:18:06;;;;;;;15.13;8.60;;;;;;;-145.79;43.44;77888.13;5220612;28;20091;-66
2023/05/27 10:20:38;;;;;;;17.60;7.30;;;;;;;-145.79;44.29;77881.78;5231937;28;20078;-66
2023/05/27 10:23:12;;;;;;;14.07;6.65;;;;;;;-145.79;43.17;77871.19;5241097;28;20075;-65
2023/05/27 10:25:49;;;;;;;12.98;5.43;;;;;;;-145.79;42.82;77873.31;5240801;28;20252;-66
2023/05/27 10:28:31;;;;;;;10.95;6.07;;;;;;;-145.79;43.62;77845.75;5241813;28;20421;-67
2023/05/27 10:31:15;;;;;;;20.63;13.27;;;;;;;-145.79;42.51;77839.38;5240897;28;20415;-65
2023/05/27 10:33:48;;;;;;;14.88;8.55;;;;;;;-145.79;42.32;77835.13;5241058;28;20021;-65
2023/05/27 10:36:26;;;;;;;12.43;6.63;;;;;;;-145.79;43.17;77807.59;5241596;28;20032;-65
2023/05/27 10:39:01;;;;;;;17.48;6.03;;;;;;;-145.79;42.84;77788.50;5240844;28;20508;-65
2023/05/27 10:41:52;;;;;;;11.45;6.30;;;;;;;-145.79;42.26;77788.50;5240619;28;20064;-67
2023/05/27 10:44:36;;;;;;;17.83;8.68;;;;;;;-145.79;42.00;77782.16;5240266;28;20522;-68
2023/05/27 10:47:15;;;;;;;13.77;6.18;;;;;;;-145.79;41.76;77767.31;5240810;28;20112;-69
2023/05/27 10:49:47;;;;;;;18.17;9.55;;;;;;;-145.79;41.76;77754.59;5221093;28;20026;-68
2023/05/27 10:52:25;;;;;;;16.73;7.63;;;;;;;-145.79;41.75;77752.47;5239060;28;20033;-68
2023/05/27 10:54:57;;;;;;;14.05;7.53;;;;;;;-145.79;41.23;77746.09;5241273;28;20021;-66
2023/05/27 10:57:30;;;;;;;18.25;11.02;;;;;;;-145.79;42.26;77750.34;5239461;28;20433;-68
2023/05/27 11:00:07;;;;;;;15.80;7.65;;;;;;;-145.79;41.15;77750.34;5220565;28;20056;-67
2023/05/27 11:02:39;;;;;;;11.43;6.70;;;;;;;-145.79;41.25;77707.94;5234502;28;20029;-69
2023/05/27 11:05:13;;;;;;;15.88;7.68;;;;;;;-145.79;40.52;77699.47;5240367;28;20041;-68
2023/05/27 11:07:44;;;;;;;18.75;9.95;;;;;;;-145.79;40.63;77686.75;5240156;28;20037;-67
2023/05/27 11:10:16;;;;;;;14.80;7.28;;;;;;;-145.79;40.30;77693.13;5240113;28;20399;-70
2023/05/27 11:12:48;;;;;;;14.75;6.60;;;;;;;-145.79;40.24;77684.63;5238423;28;20029;-69
2023/05/27 11:15:20;;;;;;;16.88;6.90;;;;;;;-145.79;40.69;77667.69;5220256;28;20427;-69
2023/05/27 11:17:51;;;;;;;13.05;6.90;;;;;;;-145.79;40.53;77638.00;5220716;28;20469;-69
2023/05/27 11:20:22;;;;;;;17.60;7.13;;;;;;;-145.79;40.54;77648.59;5221304;28;20026;-67
2023/05/27 11:22:54;;;;;;;12.07;6.22;;;;;;;-145.79;39.58;77635.88;5237828;28;20080;-67
2023/05/27 11:25:25;;;;;;;12.95;5.97;;;;;;;-145.79;40.00;77635.88;5236176;28;20053;-65
2023/05/27 11:27:56;;;;;;;21.15;7.85;;;;;;;-145.79;39.91;77629.53;5237527;28;20079;-64
2023/05/27 11:30:28;;;;;;;14.63;6.75;;;;;;;-145.79;40.42;77638.00;5234035;28;20033;-65
2023/05/27 11:33:03;;;;;;;17.98;7.80;;;;;;;-145.79;41.07;77614.69;5221140;28;20485;-65
2023/05/27 11:35:34;;;;;;;12.27;5.85;;;;;;;-145.79;37.68;77601.97;5218997;28;20490;-66
2023/05/27 11:38:17;;;;;;;16.08;6.03;;;;;;;-145.79;38.21;77572.28;5240061;28;20064;-66
2023/05/27 11:40:48;;;;;;;15.05;6.65;;;;;;;-145.79;38.03;77572.28;5234164;28;20022;-66
2023/05/27 11:43:19;;;;;;;12.07;5.53;;;;;;;-145.79;38.50;77546.84;5233526;28;20029;-67
2023/05/27 11:45:50;;;;;;;14.73;6.43;;;;;;;-145.79;37.91;77557.44;5239907;28;20029;-68
2023/05/27 11:48:22;;;;;;;14.20;5.70;;;;;;;-145.79;37.05;77517.16;5237902;28;20396;-68
2023/05/27 11:50:54;;;;;;;10.82;5.60;;;;;;;-145.79;36.08;77517.16;5239998;28;20025;-67
2023/05/27 11:53:28;;;;;;;13.88;6.32;;;;;;;-145.79;35.84;77502.34;5237692;28;20052;-67
2023/05/27 11:56:00;;;;;;;9.80;4.65;;;;;;;-145.79;36.01;77479.03;5231197;28;20084;-66
2023/05/27 11:58:31;;;;;;;8.77;4.53;;;;;;;-145.79;35.09;77472.66;5234750;28;20025;-67
2023/05/27 12:01:05;;;;;;;10.50;4.80;;;;;;;-145.79;34.82;77436.63;5233249;28;20370;-67
2023/05/27 12:03:37;;;;;;;9.32;5.13;;;;;;;-145.79;34.70;77419.66;5219032;28;20057;-67
2023/05/27 12:06:11;;;;;;;10.13;4.45;;;;;;;-145.79;33.28;77419.66;5220084;28;20440;-68
2023/05/27 12:08:46;;;;;;;8.43;4.00;;;;;;;-145.79;32.40;77423.91;5223486;28;20030;-67
2023/05/27 12:11:17;;;;;;;13.05;5.13;;;;;;;-145.79;33.18;77419.66;5244230;28;20484;-67
2023/05/27 12:13:48;;;;;;;17.67;11.98;;;;;;;-145.79;33.40;77398.47;5243513;28;20109;-67
2023/05/27 12:16:20;;;;;;;24.88;18.05;;;;;;;-145.79;34.67;77394.22;5242110;28;20037;-68
2023/05/27 12:18:51;;;;;;;12.00;6.85;;;;;;;-145.79;35.17;77375.16;5243790;28;20026;-68
2023/05/27 12:21:23;;;;;;;16.48;5.75;;;;;;;-145.79;33.85;77358.19;5243667;28;20071;-68
2023/05/27 12:23:54;;;;;;;10.30;4.35;;;;;;;-145.79;33.17;77337.00;5242897;28;20018;-67
2023/05/27 12:26:26;;;;;;;12.25;5.10;;;;;;;-145.79;34.67;77322.16;5243156;28;20025;-67
2023/05/27 12:29:00;;;;;;;11.00;5.32;;;;;;;-145.79;34.90;77322.16;5242706;28;20048;-66
2023/05/27 12:31:32;;;;;;;12.77;5.82;;;;;;;-145.79;34.25;77322.16;5242481;28;20469;-67
2023/05/27 12:34:03;;;;;;;13.60;5.70;;;;;;;-145.79;34.30;77328.53;5243542;28;20043;-68
2023/05/27 12:36:34;;;;;;;14.25;5.22;;;;;;;-145.79;34.47;77311.56;5241280;28;20037;-67
2023/05/27 12:39:06;;;;;;;8.82;4.55;;;;;;;-145.79;35.00;77307.31;5241627;28;20018;-70
2023/05/27 12:41:37;;;;;;;8.77;5.10;;;;;;;-145.79;33.92;77298.84;5239167;28;20030;-67
2023/05/27 12:44:08;;;;;;;13.43;8.80;;;;;;;-145.79;34.29;77258.56;5234812;28;20358;-68
2023/05/27 12:46:40;;;;;;;10.68;6.88;;;;;;;-145.79;34.51;77254.34;5232688;28;20028;-69
2023/05/27 12:49:11;;;;;;;13.07;5.85;;;;;;;-145.79;33.88;77258.56;5234458;28;20033;-68
2023/05/27 12:51:42;;;;;;;8.85;4.80;;;;;;;-145.79;34.25;77235.25;5222308;28;20109;-68
2023/05/27 12:54:14;;;;;;;13.82;5.78;;;;;;;-145.79;33.45;77222.53;5222811;28;20029;-68
2023/05/27 12:56:46;;;;;;;8.07;4.60;;;;;;;-145.79;34.00;77228.91;5220278;28;20022;-67
2023/05/27 12:59:17;;;;;;;12.45;6.45;;;;;;;-145.79;33.41;77203.47;5232800;28;20032;-69
2023/05/27 13:01:48;;;;;;;11.82;5.72;;;;;;;-145.79;32.56;77214.06;5240242;28;20021;-68
2023/05/27 13:04:19;;;;;;;13.38;5.25;;;;;;;-145.79;33.02;77207.72;5240557;28;20622;-67
2023/05/27 13:06:51;;;;;;;9.85;5.30;;;;;;;-145.79;33.56;77186.50;5239851;28;20103;-69
2023/05/27 13:09:23;;;;;;;14.45;5.05;;;;;;;-145.79;33.14;77165.31;5242849;28;20061;-68
2023/05/27 13:11:54;;;;;;;10.48;5.72;;;;;;;-145.79;32.70;77186.50;5241622;28;20086;-68
2023/05/27 13:14:28;;;;;;;19.33;6.38;;;;;;;-145.79;32.87;77192.88;5242413;28;20068;-68
2023/05/27 13:17:00;;;;;;;14.82;6.05;;;;;;;-145.79;33.13;77165.31;5242949;28;20428;-68
2023/05/27 13:19:31;;;;;;;12.63;7.35;;;;;;;-145.79;32.96;77137.75;5241927;28;20025;-70
2023/05/27 13:22:03;;;;;;;27.65;18.92;;;;;;;-145.79;32.31;77152.59;5241959;28;20096;-68
2023/05/27 13:24:34;;;;;;;11.30;6.72;;;;;;;-145.79;32.73;77122.94;5222774;28;20037;-68
2023/05/27 13:27:06;;;;;;;12.18;6.00;;;;;;;-145.79;32.42;77120.81;5234880;28;20124;-68
2023/05/27 13:29:40;;;;;;;8.70;4.63;;;;;;;-145.79;32.17;77125.03;5242582;28;20052;-69
2023/05/27 13:32:11;;;;;;;10.60;4.88;;;;;;;-145.79;31.59;77105.97;5235069;28;20022;-68
2023/05/27 13:34:42;;;;;;;9.57;5.07;;;;;;;-145.79;32.15;77097.50;5236453;28;20091;-69
2023/05/27 13:37:14;;;;;;;10.50;4.50;;;;;;;-145.79;31.76;77078.41;5229985;28;20033;-68
2023/05/27 13:39:45;;;;;;;9.23;4.72;;;;;;;-145.79;31.86;77072.06;5237373;28;20025;-68
2023/05/27 13:42:16;;;;;;;11.13;5.65;;;;;;;-145.79;31.28;77080.53;5239015;28;20037;-69
2023/05/27 13:44:48;;;;;;;13.88;4.43;;;;;;;-145.79;31.36;77033.91;5242416;28;20064;-69
2023/05/27 13:47:19;;;;;;;9.15;4.40;;;;;;;-145.79;31.18;77025.44;5237244;28;20556;-68
2023/05/27 13:49:51;;;;;;;10.60;6.88;;;;;;;-145.79;31.21;77019.06;5241544;28;20063;-69
2023/05/27 13:52:22;;;;;;;18.17;13.50;;;;;;;-145.79;30.93;76989.41;5241863;28;20017;-69
2023/05/27 13:54:53;;;;;;;9.73;4.72;;;;;;;-145.79;31.05;76991.53;5241012;28;20021;-68
2023/05/27 13:57:27;;;;;;;10.43;5.63;;;;;;;-145.79;31.05;76978.81;5223368;28;20021;-68
2023/05/27 13:59:59;;;;;;;13.50;5.72;;;;;;;-145.79;30.96;76966.09;5221366;28;20358;-69
2023/05/27 14:02:30;;;;;;;7.40;4.30;;;;;;;-145.79;31.23;76961.84;5220647;28;20041;-69
2023/05/27 14:05:02;;;;;;;13.95;7.72;;;;;;;-145.79;30.40;76955.50;5220979;28;20025;-70
2023/05/27 14:07:40;;;;;;;24.85;20.55;;;;;;;-145.79;31.26;76947.00;5235682;28;20088;-69
2023/05/27 14:10:14;;;;;;;9.68;4.53;;;;;;;-145.79;30.65;76966.09;5239513;28;20099;-67
2023/05/27 14:12:46;;;;;;;10.37;3.83;;;;;;;-145.79;30.77;76944.91;5240340;28;20052;-70
2023/05/27 14:15:17;;;;;;;9.05;4.22;;;;;;;-145.79;31.30;76947.00;5228299;28;20030;-70
2023/05/27 14:17:49;;;;;;;9.15;4.75;;;;;;;-145.79;30.68;76955.50;5222157;28;20018;-72
2023/05/27 14:20:20;;;;;;;9.60;4.35;;;;;;;-145.79;30.37;76966.09;5239787;28;20116;-71
2023/05/27 14:22:52;;;;;;;14.88;10.20;;;;;;;-145.79;30.37;76968.22;5236683;28;20435;-68
2023/05/27 14:25:23;;;;;;;14.60;6.47;;;;;;;-145.79;30.98;76936.41;5217799;28;20095;-70
2023/05/27 14:27:56;;;;;;;13.45;8.70;;;;;;;-145.79;30.79;76932.19;5231229;28;20036;-69
2023/05/27 14:30:27;;;;;;;10.77;5.22;;;;;;;-145.79;30.37;76932.19;5236769;28;20104;-69
2023/05/27 14:33:01;;;;;;;10.38;4.20;;;;;;;-145.79;30.33;76923.69;5236797;28;20111;-69
2023/05/27 14:35:34;;;;;;;7.85;4.22;;;;;;;-145.79;30.43;76938.53;5229691;28;20033;-69
2023/05/27 14:38:07;;;;;;;6.38;4.15;;;;;;;-145.79;29.71;76925.81;5233663;28;20034;-69
2023/05/27 14:40:38;;;;;;;11.88;5.03;;;;;;;-145.79;30.14;76944.91;5231470;28;20092;-70
2023/05/27 14:43:12;;;;;;;10.90;6.40;;;;;;;-145.79;29.95;76923.69;5239978;28;20476;-69
2023/05/27 14:45:43;;;;;;;8.05;4.80;;;;;;;-145.79;30.81;76902.50;5232637;28;20010;-69
2023/05/27 14:48:14;;;;;;;8.85;4.72;;;;;;;-145.79;30.44;76898.25;5240206;28;20044;-69
2023/05/27 14:50:48;;;;;;;8.52;4.25;;;;;;;-145.79;30.27;76885.56;5235582;28;20073;-70
2023/05/27 14:53:19;;;;;;;7.75;4.97;;;;;;;-145.79;30.07;76908.88;5220514;28;20026;-68
2023/05/27 14:55:51;;;;;;;15.93;5.30;;;;;;;-145.79;30.49;76910.97;5232046;28;20060;-67
2023/05/27 14:58:23;;;;;;;11.27;5.50;;;;;;;-145.79;30.65;76908.88;5239722;28;20026;-70
2023/05/27 15:00:54;;;;;;;26.30;19.67;;;;;;;-145.79;30.62;76923.69;5239815;28;20353;-68
2023/05/27 15:03:25;;;;;;;9.93;5.40;;;;;;;-145.79;30.96;76927.94;5239272;28;20025;-69
2023/05/27 15:05:58;;;;;;;8.38;4.65;;;;;;;-145.79;30.75;76927.94;5235693;28;20056;-71
2023/05/27 15:08:29;;;;;;;10.10;4.72;;;;;;;-145.79;30.55;76921.59;5219952;28;20025;-71
2023/05/27 15:11:00;;;;;;;9.00;5.28;;;;;;;-145.79;31.01;76917.34;5239780;28;20469;-71
2023/05/27 15:13:32;;;;;;;9.20;4.80;;;;;;;-145.79;30.00;76917.34;5240479;28;20042;-70
2023/05/27 15:16:03;;;;;;;10.07;6.07;;;;;;;-145.79;30.46;76898.25;5238931;28;20347;-71
2023/05/27 15:18:35;;;;;;;9.80;5.20;;;;;;;-145.79;30.32;76898.25;5228716;28;20032;-71
2023/05/27 15:21:06;;;;;;;8.90;6.28;;;;;;;-145.79;30.24;76896.16;5240352;28;20042;-73
2023/05/27 15:23:40;;;;;;;9.32;5.20;;;;;;;-145.79;30.91;76902.50;5224314;28;20034;-71
2023/05/27 15:26:11;;;;;;;8.38;4.32;;;;;;;-145.79;30.17;76894.03;5234228;28;20026;-71
2023/05/27 15:28:42;;;;;;;9.93;5.03;;;;;;;-145.79;30.37;76898.25;5235518;28;20040;-71
2023/05/27 15:31:14;;;;;;;10.18;4.72;;;;;;;-145.79;30.20;76919.47;5225805;28;20029;-71
2023/05/27 15:33:45;;;;;;;8.82;4.75;;;;;;;-145.79;30.06;76917.34;5236067;28;20136;-69
2023/05/27 15:36:17;;;;;;;6.97;4.30;;;;;;;-145.79;30.53;76923.69;5239584;28;20029;-69
2023/05/27 15:38:48;;;;;;;11.25;4.75;;;;;;;-145.79;30.17;76915.22;5235583;28;20026;-70
2023/05/27 15:41:19;;;;;;;9.45;5.15;;;;;;;-145.79;29.96;76908.88;5240071;28;20017;-70
2023/05/27 15:43:50;;;;;;;9.10;4.97;;;;;;;-145.79;30.18;76923.69;5241828;28;20115;-71
2023/05/27 15:46:22;;;;;;;9.65;4.97;;;;;;;-145.79;30.08;76904.63;5236682;28;20029;-70
2023/05/27 15:48:55;;;;;;;9.27;4.65;;;;;;;-145.79;29.34;76921.59;5238045;28;20032;-70
2023/05/27 15:51:26;;;;;;;8.68;4.47;;;;;;;-145.79;29.45;76900.38;5237914;28;20057;-71
2023/05/27 15:53:57;;;;;;;8.73;4.03;;;;;;;-145.79;30.31;76902.50;5242059;28;20049;-71
2023/05/27 15:56:31;;;;;;;11.57;5.03;;;;;;;-145.79;30.23;76902.50;5233236;28;20481;-70
2023/05/27 15:59:02;;;;;;;13.82;5.00;;;;;;;-145.79;30.57;76910.97;5232914;28;20137;-70
2023/05/27 16:01:35;;;;;;;10.57;5.03;;;;;;;-145.79;30.82;76891.91;5243700;28;20503;-69
2023/05/27 16:04:07;;;;;;;9.07;4.80;;;;;;;-145.79;30.88;76894.03;5241554;28;20084;-71
2023/05/27 16:06:39;;;;;;;11.60;5.15;;;;;;;-145.79;30.73;76874.94;5236841;28;20025;-72
2023/05/27 16:09:10;;;;;;;12.00;4.88;;;;;;;-145.79;30.56;76866.47;5243978;28;20088;-70
2023/05/27 16:11:41;;;;;;;12.35;4.38;;;;;;;-145.79;30.93;76868.59;5243553;28;20120;-69
2023/05/27 16:14:13;;;;;;;9.25;4.45;;;;;;;-145.79;29.96;76847.41;5243584;28;20033;-70
2023/05/27 16:16:45;;;;;;;10.50;5.18;;;;;;;-145.79;30.34;76847.41;5242842;28;20100;-70
2023/05/27 16:19:16;;;;;;;11.82;5.30;;;;;;;-145.79;30.17;76870.72;5243178;28;20064;-72
2023/05/27 16:21:48;;;;;;;7.78;4.32;;;;;;;-145.79;29.20;76866.47;5242401;28;20048;-72
2023/05/27 16:24:19;;;;;;;9.68;4.97;;;;;;;-145.79;29.55;76868.59;5244081;28;20075;-72
2023/05/27 16:26:51;;;;;;;8.00;4.30;;;;;;;-145.79;29.36;76874.94;5243963;28;20104;-70
2023/05/27 16:29:22;;;;;;;8.57;4.85;;;;;;;-145.79;28.79;76872.84;5241520;28;20296;-69
2023/05/27 16:31:54;;;;;;;10.10;5.07;;;;;;;-145.79;28.76;76868.59;5242726;28;20056;-70
2023/05/27 16:34:25;;;;;;;6.82;4.50;;;;;;;-145.79;29.21;76870.72;5242729;28;20025;-70
2023/05/27 16:36:56;;;;;;;7.60;4.38;;;;;;;-145.79;29.25;76868.59;5242563;28;20022;-70
2023/05/27 16:39:27;;;;;;;7.82;4.38;;;;;;;-145.79;29.18;76847.41;5242652;28;20037;-70
2023/05/27 16:42:00;;;;;;;7.82;5.28;;;;;;;-145.79;29.57;76855.88;5243772;28;20416;-70
2023/05/27 16:44:32;;;;;;;7.07;4.43;;;;;;;-145.79;29.46;76862.25;5237964;28;20026;-70
2023/05/27 16:47:04;;;;;;;6.72;4.20;;;;;;;-145.79;29.88;76847.41;5228543;28;20048;-70
2023/05/27 16:49:35;;;;;;;6.43;4.43;;;;;;;-145.79;30.01;76841.03;5241045;28;20030;-70
2023/05/27 16:52:06;;;;;;;8.05;4.72;;;;;;;-145.79;30.20;76843.16;5229902;28;20030;-71
